sensor_id;sensor_type;location;lat;lon;timestamp;pressure;altitude;pressure_sealevel;temperature;humidity
46464;BME280;32161;48.148;-1.554;2023-02-13T00:00:37;102639.81;;;3.74;92.03
46464;BME280;32161;48.148;-1.554;2023-02-13T00:03:05;102638.97;;;3.74;91.98
46464;BME280;32161;48.148;-1.554;2023-02-13T00:05:33;102643.50;;;3.73;91.05
46464;BME280;32161;48.148;-1.554;2023-02-13T00:08:00;102642.63;;;3.73;89.45
46464;BME280;32161;48.148;-1.554;2023-02-13T00:10:29;102639.50;;;3.67;87.85
46464;BME280;32161;48.148;-1.554;2023-02-13T00:12:56;102645.31;;;3.63;86.41
46464;BME280;32161;48.148;-1.554;2023-02-13T00:15:25;102649.38;;;3.57;85.75
46464;BME280;32161;48.148;-1.554;2023-02-13T00:17:53;102648.94;;;3.52;nan
46464;BME280;32161;48.148;-1.554;2023-02-13T00:20:21;102653.63;;;3.50;86.74
46464;BME280;32161;48.148;-1.554;2023-02-13T00:22:48;102649.53;;;3.46;86.31
46464;BME280;32161;48.148;-1.554;2023-02-13T00:25:16;102639.03;;;3.43;86.26
46464;BME280;32161;48.148;-1.554;2023-02-13T00:27:44;102647.94;;;3.43;86.83
46464;BME280;32161;48.148;-1.554;2023-02-13T00:30:13;102650.63;;;3.43;86.94
46464;BME280;32161;48.148;-1.554;2023-02-13T00:32:42;102642.56;;;3.43;87.35
46464;BME280;32161;48.148;-1.554;2023-02-13T00:35:09;102645.53;;;3.40;87.89
46464;BME280;32161;48.148;-1.554;2023-02-13T00:37:37;102640.28;;;3.39;87.75
46464;BME280;32161;48.148;-1.554;2023-02-13T00:40:06;102640.56;;;3.36;88.48
46464;BME280;32161;48.148;-1.554;2023-02-13T00:42:34;102641.13;;;3.39;89.09
46464;BME280;32161;48.148;-1.554;2023-02-13T00:45:02;102646.50;;;3.39;89.45
46464;BME280;32161;48.148;-1.554;2023-02-13T00:47:29;102654.69;;;3.38;88.93
46464;BME280;32161;48.148;-1.554;2023-02-13T00:49:58;102658.38;;;3.37;88.82
46464;BME280;32161;48.148;-1.554;2023-02-13T00:52:26;102651.03;;;3.39;89.04
46464;BME280;32161;48.148;-1.554;2023-02-13T00:54:53;102643.94;;;3.38;89.92
46464;BME280;32161;48.148;-1.554;2023-02-13T00:57:21;102653.28;;;3.34;90.88
46464;BME280;32161;48.148;-1.554;2023-02-13T00:59:48;102647.47;;;3.29;90.72
46464;BME280;32161;48.148;-1.554;2023-02-13T01:02:16;102643.09;;;3.37;91.78
46464;BME280;32161;48.148;-1.554;2023-02-13T01:04:43;102646.50;;;3.39;93.67
46464;BME280;32161;48.148;-1.554;2023-02-13T01:07:13;102644.25;;;3.35;94.77
46464;BME280;32161;48.148;-1.554;2023-02-13T01:09:40;102642.66;;;3.32;94.27
46464;BME280;32161;48.148;-1.554;2023-02-13T01:12:08;102635.44;;;3.33;93.87
46464;BME280;32161;48.148;-1.554;2023-02-13T01:14:36;102642.53;;;3.34;93.01
46464;BME280;32161;48.148;-1.554;2023-02-13T01:17:03;102639.72;;;3.35;94.32
46464;BME280;32161;48.148;-1.554;2023-02-13T01:19:31;102638.13;;;3.33;94.89
46464;BME280;32161;48.148;-1.554;2023-02-13T01:21:59;102633.19;;;3.38;94.15
46464;BME280;32161;48.148;-1.554;2023-02-13T01:24:27;102627.81;;;3.38;94.95
46464;BME280;32161;48.148;-1.554;2023-02-13T01:26:58;102630.25;;;3.41;96.08
46464;BME280;32161;48.148;-1.554;2023-02-13T01:29:27;102621.06;;;3.43;96.33
46464;BME280;32161;48.148;-1.554;2023-02-13T01:31:55;102623.03;;;3.41;97.04
46464;BME280;32161;48.148;-1.554;2023-02-13T01:34:24;102622.19;;;3.41;95.05
46464;BME280;32161;48.148;-1.554;2023-02-13T01:36:52;102620.06;;;3.35;93.79
46464;BME280;32161;48.148;-1.554;2023-02-13T01:39:19;102616.22;;;3.37;93.27
46464;BME280;32161;48.148;-1.554;2023-02-13T01:41:48;102624.16;;;3.39;93.79
46464;BME280;32161;48.148;-1.554;2023-02-13T01:44:46;102616.94;;;3.39;94.45
46464;BME280;32161;48.148;-1.554;2023-02-13T01:47:17;102625.28;;;3.36;94.84
46464;BME280;32161;48.148;-1.554;2023-02-13T01:49:47;102626.28;;;3.35;93.49
46464;BME280;32161;48.148;-1.554;2023-02-13T01:52:16;102634.34;;;3.35;90.95
46464;BME280;32161;48.148;-1.554;2023-02-13T01:54:45;102638.41;;;3.30;89.31
46464;BME280;32161;48.148;-1.554;2023-02-13T01:57:17;102616.22;;;3.28;88.75
46464;BME280;32161;48.148;-1.554;2023-02-13T01:59:54;102616.88;;;3.20;89.74
46464;BME280;32161;48.148;-1.554;2023-02-13T02:02:23;102619.00;;;3.16;90.47
46464;BME280;32161;48.148;-1.554;2023-02-13T02:04:52;102626.31;;;3.14;90.03
46464;BME280;32161;48.148;-1.554;2023-02-13T02:07:23;102635.91;;;3.07;89.66
46464;BME280;32161;48.148;-1.554;2023-02-13T02:09:58;102624.72;;;3.02;89.02
46464;BME280;32161;48.148;-1.554;2023-02-13T02:12:33;102623.13;;;3.00;88.37
46464;BME280;32161;48.148;-1.554;2023-02-13T02:15:04;102615.50;;;2.95;88.76
46464;BME280;32161;48.148;-1.554;2023-02-13T02:17:32;102619.16;;;2.94;90.13
46464;BME280;32161;48.148;-1.554;2023-02-13T02:20:13;102615.19;;;2.88;89.37
46464;BME280;32161;48.148;-1.554;2023-02-13T02:23:28;102603.88;;;2.85;89.63
46464;BME280;32161;48.148;-1.554;2023-02-13T02:26:38;102608.78;;;2.80;90.68
46464;BME280;32161;48.148;-1.554;2023-02-13T02:32:29;102612.53;;;2.67;90.25
46464;BME280;32161;48.148;-1.554;2023-02-13T02:35:12;102602.38;;;2.71;90.68
46464;BME280;32161;48.148;-1.554;2023-02-13T02:38:12;102596.47;;;2.77;92.88
46464;BME280;32161;48.148;-1.554;2023-02-13T02:40:51;102591.97;;;2.78;94.59
46464;BME280;32161;48.148;-1.554;2023-02-13T02:43:38;102589.13;;;2.79;94.53
46464;BME280;32161;48.148;-1.554;2023-02-13T02:46:18;102586.31;;;2.81;94.83
46464;BME280;32161;48.148;-1.554;2023-02-13T02:48:56;102587.75;;;2.85;94.47
46464;BME280;32161;48.148;-1.554;2023-02-13T02:51:53;102585.78;;;2.87;94.04
46464;BME280;32161;48.148;-1.554;2023-02-13T02:54:25;102596.41;;;2.88;94.28
46464;BME280;32161;48.148;-1.554;2023-02-13T02:57:16;102592.72;;;2.89;93.39
46464;BME280;32161;48.148;-1.554;2023-02-13T02:59:46;102588.03;;;2.91;93.15
46464;BME280;32161;48.148;-1.554;2023-02-13T03:02:35;102579.28;;;2.89;92.07
46464;BME280;32161;48.148;-1.554;2023-02-13T03:05:39;102588.47;;;2.87;92.15
46464;BME280;32161;48.148;-1.554;2023-02-13T03:08:28;102585.34;;;2.82;92.45
46464;BME280;32161;48.148;-1.554;2023-02-13T03:11:10;102586.59;;;2.78;92.36
46464;BME280;32161;48.148;-1.554;2023-02-13T03:14:09;102589.53;;;2.75;92.50
46464;BME280;32161;48.148;-1.554;2023-02-13T03:16:38;102589.94;;;2.70;91.94
46464;BME280;32161;48.148;-1.554;2023-02-13T03:19:34;102595.16;;;2.72;92.48
46464;BME280;32161;48.148;-1.554;2023-02-13T03:22:36;102583.13;;;2.66;92.53
46464;BME280;32161;48.148;-1.554;2023-02-13T03:25:15;102576.91;;;2.65;92.52
46464;BME280;32161;48.148;-1.554;2023-02-13T03:27:58;102583.44;;;2.73;93.62
46464;BME280;32161;48.148;-1.554;2023-02-13T03:30:56;102587.84;;;2.74;94.41
46464;BME280;32161;48.148;-1.554;2023-02-13T03:33:43;102579.78;;;2.74;94.12
46464;BME280;32161;48.148;-1.554;2023-02-13T03:36:24;102575.13;;;2.76;94.18
46464;BME280;32161;48.148;-1.554;2023-02-13T03:39:19;102589.97;;;2.80;95.34
46464;BME280;32161;48.148;-1.554;2023-02-13T03:41:55;102576.44;;;2.81;94.85
46464;BME280;32161;48.148;-1.554;2023-02-13T03:44:29;102578.97;;;2.83;94.83
46464;BME280;32161;48.148;-1.554;2023-02-13T03:47:00;102574.44;;;2.83;94.46
46464;BME280;32161;48.148;-1.554;2023-02-13T03:49:35;102573.59;;;2.83;94.98
46464;BME280;32161;48.148;-1.554;2023-02-13T03:52:25;102579.41;;;2.88;94.70
46464;BME280;32161;48.148;-1.554;2023-02-13T03:54:57;102565.88;;;2.89;94.71
46464;BME280;32161;48.148;-1.554;2023-02-13T03:57:45;102564.03;;;2.90;94.49
46464;BME280;32161;48.148;-1.554;2023-02-13T04:00:36;102567.69;;;2.89;93.87
46464;BME280;32161;48.148;-1.554;2023-02-13T04:03:12;102564.16;;;2.88;93.88
46464;BME280;32161;48.148;-1.554;2023-02-13T04:05:44;102574.03;;;2.88;93.99
46464;BME280;32161;48.148;-1.554;2023-02-13T04:08:13;102569.53;;;2.88;93.92
46464;BME280;32161;48.148;-1.554;2023-02-13T04:10:49;102572.34;;;2.87;94.36
46464;BME280;32161;48.148;-1.554;2023-02-13T04:13:25;102570.50;;;2.87;93.52
46464;BME280;32161;48.148;-1.554;2023-02-13T04:16:00;102567.97;;;2.86;93.46
46464;BME280;32161;48.148;-1.554;2023-02-13T04:18:31;102572.22;;;2.88;94.09
46464;BME280;32161;48.148;-1.554;2023-02-13T04:21:01;102575.03;;;2.87;94.08
46464;BME280;32161;48.148;-1.554;2023-02-13T04:23:29;102583.53;;;2.92;93.58
46464;BME280;32161;48.148;-1.554;2023-02-13T04:26:00;102581.84;;;2.91;94.04
46464;BME280;32161;48.148;-1.554;2023-02-13T04:28:29;102580.84;;;2.92;94.09
46464;BME280;32161;48.148;-1.554;2023-02-13T04:30:56;102583.66;;;2.90;94.52
46464;BME280;32161;48.148;-1.554;2023-02-13T04:33:24;102594.69;;;2.87;94.56
46464;BME280;32161;48.148;-1.554;2023-02-13T04:35:51;102592.25;;;2.84;93.54
46464;BME280;32161;48.148;-1.554;2023-02-13T04:38:19;102594.94;;;2.84;93.79
46464;BME280;32161;48.148;-1.554;2023-02-13T04:40:46;102596.06;;;2.82;93.14
46464;BME280;32161;48.148;-1.554;2023-02-13T04:43:16;102590.81;;;2.80;91.42
46464;BME280;32161;48.148;-1.554;2023-02-13T04:45:47;102590.22;;;2.77;91.09
46464;BME280;32161;48.148;-1.554;2023-02-13T04:48:14;102588.53;;;2.76;90.61
46464;BME280;32161;48.148;-1.554;2023-02-13T04:50:42;102596.34;;;2.79;91.55
46464;BME280;32161;48.148;-1.554;2023-02-13T04:53:09;102583.31;;;2.74;91.77
46464;BME280;32161;48.148;-1.554;2023-02-13T04:55:37;102583.44;;;2.73;91.93
46464;BME280;32161;48.148;-1.554;2023-02-13T04:58:05;102580.63;;;2.74;93.16
46464;BME280;32161;48.148;-1.554;2023-02-13T05:00:33;102574.41;;;2.74;93.30
46464;BME280;32161;48.148;-1.554;2023-02-13T05:03:05;102564.38;;;2.76;92.64
46464;BME280;32161;48.148;-1.554;2023-02-13T05:05:33;102572.44;;;2.76;93.06
46464;BME280;32161;48.148;-1.554;2023-02-13T05:08:01;102574.28;;;2.75;92.79
46464;BME280;32161;48.148;-1.554;2023-02-13T05:10:29;102566.47;;;2.72;92.36
46464;BME280;32161;48.148;-1.554;2023-02-13T05:12:57;102569.56;;;2.67;92.54
46464;BME280;32161;48.148;-1.554;2023-02-13T05:15:25;102575.94;;;2.66;92.81
46464;BME280;32161;48.148;-1.554;2023-02-13T05:17:54;102577.88;;;2.64;93.42
46464;BME280;32161;48.148;-1.554;2023-02-13T05:20:21;102574.34;;;2.64;93.60
46464;BME280;32161;48.148;-1.554;2023-02-13T05:22:51;102579.88;;;2.62;92.71
46464;BME280;32161;48.148;-1.554;2023-02-13T05:25:38;102572.81;;;2.61;93.42
46464;BME280;32161;48.148;-1.554;2023-02-13T05:28:07;102573.75;;;2.60;92.82
46464;BME280;32161;48.148;-1.554;2023-02-13T05:30:55;102577.44;;;2.59;92.78
46464;BME280;32161;48.148;-1.554;2023-02-13T05:33:24;102577.44;;;2.59;92.80
46464;BME280;32161;48.148;-1.554;2023-02-13T05:35:51;102583.53;;;2.61;92.26
46464;BME280;32161;48.148;-1.554;2023-02-13T05:38:19;102581.97;;;2.59;92.01
46464;BME280;32161;48.148;-1.554;2023-02-13T05:40:46;102583.06;;;2.56;91.77
46464;BME280;32161;48.148;-1.554;2023-02-13T05:43:14;102579.41;;;2.57;92.84
46464;BME280;32161;48.148;-1.554;2023-02-13T05:45:42;102576.72;;;2.57;93.01
46464;BME280;32161;48.148;-1.554;2023-02-13T05:48:10;102583.91;;;2.57;92.42
46464;BME280;32161;48.148;-1.554;2023-02-13T05:50:39;102584.06;;;2.55;92.39
46464;BME280;32161;48.148;-1.554;2023-02-13T05:53:07;102579.69;;;2.54;92.45
46464;BME280;32161;48.148;-1.554;2023-02-13T05:55:34;102573.72;;;2.51;91.71
46464;BME280;32161;48.148;-1.554;2023-02-13T05:58:02;102579.94;;;2.51;92.07
46464;BME280;32161;48.148;-1.554;2023-02-13T06:00:29;102581.88;;;2.49;91.45
46464;BME280;32161;48.148;-1.554;2023-02-13T06:02:57;102577.25;;;2.51;91.48
46464;BME280;32161;48.148;-1.554;2023-02-13T06:05:25;102574.84;;;2.48;91.18
46464;BME280;32161;48.148;-1.554;2023-02-13T06:07:53;102575.94;;;2.45;91.72
46464;BME280;32161;48.148;-1.554;2023-02-13T06:10:21;102577.78;;;2.45;91.38
46464;BME280;32161;48.148;-1.554;2023-02-13T06:12:49;102576.94;;;2.44;91.97
46464;BME280;32161;48.148;-1.554;2023-02-13T06:15:16;102581.31;;;2.45;92.90
46464;BME280;32161;48.148;-1.554;2023-02-13T06:17:44;102578.75;;;2.44;93.47
46464;BME280;32161;48.148;-1.554;2023-02-13T06:20:12;102584.13;;;2.44;93.97
46464;BME280;32161;48.148;-1.554;2023-02-13T06:22:39;102576.34;;;2.41;94.78
46464;BME280;32161;48.148;-1.554;2023-02-13T06:25:08;102575.34;;;2.42;94.34
46464;BME280;32161;48.148;-1.554;2023-02-13T06:27:36;102578.75;;;2.44;93.59
46464;BME280;32161;48.148;-1.554;2023-02-13T06:30:05;102589.50;;;2.44;93.92
46464;BME280;32161;48.148;-1.554;2023-02-13T06:32:32;102584.53;;;2.39;94.58
46464;BME280;32161;48.148;-1.554;2023-02-13T06:35:00;102584.66;;;2.38;94.48
46464;BME280;32161;48.148;-1.554;2023-02-13T06:37:27;102581.00;;;2.39;95.02
46464;BME280;32161;48.148;-1.554;2023-02-13T06:39:55;102588.47;;;2.35;94.74
46464;BME280;32161;48.148;-1.554;2023-02-13T06:42:24;102590.88;;;2.38;93.89
46464;BME280;32161;48.148;-1.554;2023-02-13T06:44:52;102593.56;;;2.38;93.80
46464;BME280;32161;48.148;-1.554;2023-02-13T06:47:19;102589.31;;;2.36;93.47
46464;BME280;32161;48.148;-1.554;2023-02-13T06:49:47;102590.00;;;2.38;93.26
46464;BME280;32161;48.148;-1.554;2023-02-13T06:52:14;102597.34;;;2.36;92.67
46464;BME280;32161;48.148;-1.554;2023-02-13T06:54:42;102603.72;;;2.35;93.22
46464;BME280;32161;48.148;-1.554;2023-02-13T06:57:10;102608.19;;;2.34;92.75
46464;BME280;32161;48.148;-1.554;2023-02-13T06:59:39;102608.34;;;2.33;92.81
46464;BME280;32161;48.148;-1.554;2023-02-13T07:02:08;102613.00;;;2.31;92.15
46464;BME280;32161;48.148;-1.554;2023-02-13T07:04:35;102621.16;;;2.29;91.53
46464;BME280;32161;48.148;-1.554;2023-02-13T07:07:03;102624.84;;;2.28;91.21
46464;BME280;32161;48.148;-1.554;2023-02-13T07:09:31;102625.53;;;2.30;92.04
46464;BME280;32161;48.148;-1.554;2023-02-13T07:12:02;102634.59;;;2.29;91.42
46464;BME280;32161;48.148;-1.554;2023-02-13T07:14:31;102642.03;;;2.26;91.24
46464;BME280;32161;48.148;-1.554;2023-02-13T07:17:00;102642.78;;;2.28;91.35
46464;BME280;32161;48.148;-1.554;2023-02-13T07:19:27;102647.28;;;2.27;91.21
46464;BME280;32161;48.148;-1.554;2023-02-13T07:21:55;102639.25;;;2.27;91.25
46464;BME280;32161;48.148;-1.554;2023-02-13T07:24:22;102640.34;;;2.25;91.05
46464;BME280;32161;48.148;-1.554;2023-02-13T07:26:50;102641.19;;;2.25;91.54
46464;BME280;32161;48.148;-1.554;2023-02-13T07:29:18;102631.31;;;2.26;91.58
46464;BME280;32161;48.148;-1.554;2023-02-13T07:31:45;102641.06;;;2.27;91.81
46464;BME280;32161;48.148;-1.554;2023-02-13T07:34:14;102641.34;;;2.24;92.14
46464;BME280;32161;48.148;-1.554;2023-02-13T07:36:42;102640.59;;;2.22;92.66
46464;BME280;32161;48.148;-1.554;2023-02-13T07:39:09;102643.53;;;2.18;93.87
46464;BME280;32161;48.148;-1.554;2023-02-13T07:41:37;102639.16;;;2.17;93.64
46464;BME280;32161;48.148;-1.554;2023-02-13T07:44:04;102646.34;;;2.17;93.88
46464;BME280;32161;48.148;-1.554;2023-02-13T07:46:32;102663.16;;;2.19;94.44
46464;BME280;32161;48.148;-1.554;2023-02-13T07:49:00;102657.94;;;2.17;94.38
46464;BME280;32161;48.148;-1.554;2023-02-13T07:51:29;102660.63;;;2.17;95.15
46464;BME280;32161;48.148;-1.554;2023-02-13T07:53:56;102662.31;;;2.18;95.03
46464;BME280;32161;48.148;-1.554;2023-02-13T07:56:24;102658.66;;;2.19;95.18
46464;BME280;32161;48.148;-1.554;2023-02-13T07:58:51;102663.66;;;2.24;95.07
46464;BME280;32161;48.148;-1.554;2023-02-13T08:01:19;102660.81;;;2.26;94.87
46464;BME280;32161;48.148;-1.554;2023-02-13T08:03:50;102662.66;;;2.25;96.46
46464;BME280;32161;48.148;-1.554;2023-02-13T08:06:18;102663.00;;;2.32;96.70
46464;BME280;32161;48.148;-1.554;2023-02-13T08:08:47;102654.81;;;2.33;98.07
46464;BME280;32161;48.148;-1.554;2023-02-13T08:11:35;102662.59;;;2.36;97.23
46464;BME280;32161;48.148;-1.554;2023-02-13T08:14:20;102673.19;;;2.38;97.54
46464;BME280;32161;48.148;-1.554;2023-02-13T08:16:48;102664.91;;;2.41;98.09
46464;BME280;32161;48.148;-1.554;2023-02-13T08:19:16;102665.75;;;2.41;97.63
46464;BME280;32161;48.148;-1.554;2023-02-13T08:21:44;102673.88;;;2.51;97.79
46464;BME280;32161;48.148;-1.554;2023-02-13T08:24:13;102665.59;;;2.54;98.05
46464;BME280;32161;48.148;-1.554;2023-02-13T08:26:41;102660.53;;;2.61;98.83
46464;BME280;32161;48.148;-1.554;2023-02-13T08:29:09;102658.56;;;2.63;98.93
46464;BME280;32161;48.148;-1.554;2023-02-13T08:31:37;102664.53;;;2.66;98.89
46464;BME280;32161;48.148;-1.554;2023-02-13T08:34:04;102662.53;;;2.68;98.59
46464;BME280;32161;48.148;-1.554;2023-02-13T08:36:32;102662.03;;;2.75;98.86
46464;BME280;32161;48.148;-1.554;2023-02-13T08:39:00;102667.00;;;2.79;99.25
46464;BME280;32161;48.148;-1.554;2023-02-13T08:41:29;102658.44;;;2.85;99.90
46464;BME280;32161;48.148;-1.554;2023-02-13T08:43:56;102659.28;;;2.86;99.34
46464;BME280;32161;48.148;-1.554;2023-02-13T08:46:24;102679.66;;;2.88;99.89
46464;BME280;32161;48.148;-1.554;2023-02-13T08:48:51;102673.41;;;2.88;99.58
46464;BME280;32161;48.148;-1.554;2023-02-13T08:51:19;102674.59;;;2.95;100.00
46464;BME280;32161;48.148;-1.554;2023-02-13T08:53:47;102675.16;;;2.99;99.90
46464;BME280;32161;48.148;-1.554;2023-02-13T08:56:14;102676.19;;;3.07;100.00
46464;BME280;32161;48.148;-1.554;2023-02-13T08:58:43;102685.72;;;3.11;100.00
46464;BME280;32161;48.148;-1.554;2023-02-13T09:01:11;102670.88;;;3.17;100.00
46464;BME280;32161;48.148;-1.554;2023-02-13T09:03:38;102680.53;;;3.20;100.00
46464;BME280;32161;48.148;-1.554;2023-02-13T09:06:06;102684.31;;;3.17;100.00
46464;BME280;32161;48.148;-1.554;2023-02-13T09:08:34;102690.72;;;3.26;100.00
46464;BME280;32161;48.148;-1.554;2023-02-13T09:11:03;102680.44;;;3.31;100.00
46464;BME280;32161;48.148;-1.554;2023-02-13T09:13:33;102676.75;;;3.32;100.00
46464;BME280;32161;48.148;-1.554;2023-02-13T09:16:05;102681.88;;;3.35;100.00
46464;BME280;32161;48.148;-1.554;2023-02-13T09:18:33;102680.72;;;3.37;100.00
46464;BME280;32161;48.148;-1.554;2023-02-13T09:21:03;102685.84;;;3.40;100.00
46464;BME280;32161;48.148;-1.554;2023-02-13T09:23:32;102686.16;;;3.47;100.00
46464;BME280;32161;48.148;-1.554;2023-02-13T09:26:01;102676.28;;;3.57;100.00
46464;BME280;32161;48.148;-1.554;2023-02-13T09:28:29;102681.38;;;3.60;100.00
46464;BME280;32161;48.148;-1.554;2023-02-13T09:30:57;102694.56;;;3.63;100.00
46464;BME280;32161;48.148;-1.554;2023-02-13T09:33:26;102687.50;;;3.72;100.00
46464;BME280;32161;48.148;-1.554;2023-02-13T09:35:54;102685.00;;;4.00;100.00
46464;BME280;32161;48.148;-1.554;2023-02-13T09:38:21;102693.38;;;3.97;100.00
46464;BME280;32161;48.148;-1.554;2023-02-13T09:40:52;102692.81;;;4.03;100.00
46464;BME280;32161;48.148;-1.554;2023-02-13T09:43:28;102687.00;;;3.98;99.77
46464;BME280;32161;48.148;-1.554;2023-02-13T09:46:01;102688.25;;;4.03;100.00
46464;BME280;32161;48.148;-1.554;2023-02-13T09:48:36;102695.94;;;4.18;100.00
46464;BME280;32161;48.148;-1.554;2023-02-13T09:51:04;102692.56;;;4.15;99.84
46464;BME280;32161;48.148;-1.554;2023-02-13T09:53:32;102689.00;;;4.25;100.00
46464;BME280;32161;48.148;-1.554;2023-02-13T09:56:08;102693.53;;;4.24;100.00
46464;BME280;32161;48.148;-1.554;2023-02-13T09:58:44;102687.75;;;4.38;100.00
46464;BME280;32161;48.148;-1.554;2023-02-13T10:01:34;102681.34;;;4.49;100.00
46464;BME280;32161;48.148;-1.554;2023-02-13T10:04:28;102686.59;;;4.51;99.63
46464;BME280;32161;48.148;-1.554;2023-02-13T10:07:13;102684.47;;;4.45;99.21
46464;BME280;32161;48.148;-1.554;2023-02-13T10:09:52;102689.28;;;4.60;99.36
46464;BME280;32161;48.148;-1.554;2023-02-13T10:12:58;102693.38;;;4.64;98.19
46464;BME280;32161;48.148;-1.554;2023-02-13T10:15:35;102691.28;;;4.58;99.25
46464;BME280;32161;48.148;-1.554;2023-02-13T10:18:13;102687.88;;;4.66;99.26
46464;BME280;32161;48.148;-1.554;2023-02-13T10:20:46;102680.63;;;4.67;99.46
46464;BME280;32161;48.148;-1.554;2023-02-13T10:23:23;102679.34;;;4.71;99.45
46464;BME280;32161;48.148;-1.554;2023-02-13T10:25:57;102679.75;;;4.76;99.63
46464;BME280;32161;48.148;-1.554;2023-02-13T10:28:33;102674.94;;;4.79;99.68
46464;BME280;32161;48.148;-1.554;2023-02-13T10:31:06;102674.09;;;4.88;99.53
46464;BME280;32161;48.148;-1.554;2023-02-13T10:33:42;102673.84;;;5.19;98.81
46464;BME280;32161;48.148;-1.554;2023-02-13T10:36:20;102674.81;;;5.18;98.21
46464;BME280;32161;48.148;-1.554;2023-02-13T10:38:57;102687.00;;;5.32;99.26
46464;BME280;32161;48.148;-1.554;2023-02-13T10:41:40;102681.41;;;5.43;98.48
46464;BME280;32161;48.148;-1.554;2023-02-13T10:44:29;102670.81;;;5.32;97.16
46464;BME280;32161;48.148;-1.554;2023-02-13T10:47:09;102684.97;;;5.34;97.00
46464;BME280;32161;48.148;-1.554;2023-02-13T10:50:00;102680.19;;;5.28;97.89
46464;BME280;32161;48.148;-1.554;2023-02-13T10:52:43;102670.41;;;5.27;98.35
46464;BME280;32161;48.148;-1.554;2023-02-13T10:55:43;102670.81;;;5.59;98.14
46464;BME280;32161;48.148;-1.554;2023-02-13T10:58:19;102664.19;;;5.54;97.28
46464;BME280;32161;48.148;-1.554;2023-02-13T11:00:54;102675.53;;;5.57;96.60
46464;BME280;32161;48.148;-1.554;2023-02-13T11:03:25;102666.22;;;5.70;97.01
46464;BME280;32161;48.148;-1.554;2023-02-13T11:05:54;102669.31;;;5.75;97.70
46464;BME280;32161;48.148;-1.554;2023-02-13T11:08:27;102681.38;;;5.80;98.38
46464;BME280;32161;48.148;-1.554;2023-02-13T11:10:56;102672.81;;;5.85;98.27
46464;BME280;32161;48.148;-1.554;2023-02-13T11:13:27;102674.88;;;5.91;98.05
46464;BME280;32161;48.148;-1.554;2023-02-13T11:15:58;102665.69;;;5.94;98.41
46464;BME280;32161;48.148;-1.554;2023-02-13T11:18:29;102666.25;;;6.15;95.97
46464;BME280;32161;48.148;-1.554;2023-02-13T11:21:02;102673.25;;;6.26;95.11
46464;BME280;32161;48.148;-1.554;2023-02-13T11:23:39;102668.63;;;6.36;93.88
46464;BME280;32161;48.148;-1.554;2023-02-13T11:26:11;102663.28;;;6.44;94.11
46464;BME280;32161;48.148;-1.554;2023-02-13T11:28:49;102666.38;;;6.49;94.40
46464;BME280;32161;48.148;-1.554;2023-02-13T11:31:26;102668.75;;;6.70;93.14
46464;BME280;32161;48.148;-1.554;2023-02-13T11:33:55;102667.84;;;6.62;93.39
46464;BME280;32161;48.148;-1.554;2023-02-13T11:36:28;102661.78;;;6.68;93.83
46464;BME280;32161;48.148;-1.554;2023-02-13T11:39:03;102660.16;;;6.75;94.69
46464;BME280;32161;48.148;-1.554;2023-02-13T11:41:39;102653.06;;;6.74;93.44
46464;BME280;32161;48.148;-1.554;2023-02-13T11:44:22;102651.47;;;6.89;93.27
46464;BME280;32161;48.148;-1.554;2023-02-13T11:46:53;102651.69;;;6.96;93.49
46464;BME280;32161;48.148;-1.554;2023-02-13T11:49:23;102653.31;;;7.15;91.24
46464;BME280;32161;48.148;-1.554;2023-02-13T11:51:53;102646.72;;;7.17;91.36
46464;BME280;32161;48.148;-1.554;2023-02-13T11:54:30;102639.88;;;7.31;90.88
46464;BME280;32161;48.148;-1.554;2023-02-13T11:57:00;102636.22;;;7.48;87.14
46464;BME280;32161;48.148;-1.554;2023-02-13T11:59:32;102632.13;;;7.36;88.42
46464;BME280;32161;48.148;-1.554;2023-02-13T12:02:16;102635.56;;;7.46;88.79
46464;BME280;32161;48.148;-1.554;2023-02-13T12:04:45;102632.19;;;7.52;87.78
46464;BME280;32161;48.148;-1.554;2023-02-13T12:07:22;102631.19;;;7.53;89.10
46464;BME280;32161;48.148;-1.554;2023-02-13T12:10:00;102633.22;;;7.59;89.62
46464;BME280;32161;48.148;-1.554;2023-02-13T12:12:35;102625.63;;;7.71;90.06
46464;BME280;32161;48.148;-1.554;2023-02-13T12:15:15;102627.53;;;7.87;88.31
46464;BME280;32161;48.148;-1.554;2023-02-13T12:17:45;102626.56;;;7.96;85.36
46464;BME280;32161;48.148;-1.554;2023-02-13T12:20:15;102620.50;;;8.27;83.70
46464;BME280;32161;48.148;-1.554;2023-02-13T12:22:58;102628.25;;;8.22;84.05
46464;BME280;32161;48.148;-1.554;2023-02-13T12:25:48;102623.19;;;8.19;84.01
46464;BME280;32161;48.148;-1.554;2023-02-13T12:28:27;102619.81;;;8.25;84.77
46464;BME280;32161;48.148;-1.554;2023-02-13T12:37:46;102603.88;;;8.22;86.18
46464;BME280;32161;48.148;-1.554;2023-02-13T12:41:04;102596.09;;;8.35;86.12
46464;BME280;32161;48.148;-1.554;2023-02-13T12:46:59;102597.28;;;8.73;83.54
46464;BME280;32161;48.148;-1.554;2023-02-13T12:50:03;102586.25;;;8.75;84.59
46464;BME280;32161;48.148;-1.554;2023-02-13T12:52:48;102584.56;;;8.74;85.59
46464;BME280;32161;48.148;-1.554;2023-02-13T12:55:42;102586.91;;;8.85;85.12
46464;BME280;32161;48.148;-1.554;2023-02-13T12:58:35;102584.19;;;8.93;85.27
46464;BME280;32161;48.148;-1.554;2023-02-13T13:01:17;102585.34;;;8.91;84.55
46464;BME280;32161;48.148;-1.554;2023-02-13T13:03:57;102582.09;;;9.12;83.29
46464;BME280;32161;48.148;-1.554;2023-02-13T13:06:52;102567.22;;;9.39;81.39
46464;BME280;32161;48.148;-1.554;2023-02-13T13:09:48;102571.66;;;9.32;81.94
46464;BME280;32161;48.148;-1.554;2023-02-13T13:12:37;102571.16;;;9.28;81.56
46464;BME280;32161;48.148;-1.554;2023-02-13T13:15:18;102566.22;;;9.32;80.81
46464;BME280;32161;48.148;-1.554;2023-02-13T13:18:01;102562.56;;;9.47;80.48
46464;BME280;32161;48.148;-1.554;2023-02-13T13:21:11;102563.16;;;9.66;78.96
46464;BME280;32161;48.148;-1.554;2023-02-13T13:23:49;102555.41;;;9.54;80.54
46464;BME280;32161;48.148;-1.554;2023-02-13T13:26:31;102549.28;;;9.52;80.29
46464;BME280;32161;48.148;-1.554;2023-02-13T13:29:06;102540.66;;;9.49;80.75
46464;BME280;32161;48.148;-1.554;2023-02-13T13:31:38;102539.28;;;9.53;81.80
46464;BME280;32161;48.148;-1.554;2023-02-13T13:34:14;102536.97;;;9.73;77.45
46464;BME280;32161;48.148;-1.554;2023-02-13T13:36:50;102525.00;;;9.82;79.06